sensor_id;sensor_type;location;lat;lon;timestamp;P1;durP1;ratioP1;P2;durP2;ratioP2
62927;SDS011;51070;52.236;-0.892;2023-06-14T00:01:41;8.30;;;4.70;;
62927;SDS011;51070;52.236;-0.892;2023-06-14T00:04:06;5.80;;;2.60;;
62927;SDS011;51070;52.236;-0.892;2023-06-14T00:06:33;4.90;;;2.40;;
62927;SDS011;51070;52.236;-0.892;2023-06-14T00:08:59;7.10;;;2.70;;
62927;SDS011;51070;52.236;-0.892;2023-06-14T00:11:25;5.30;;;2.70;;
62927;SDS011;51070;52.236;-0.892;2023-06-14T00:13:52;4.30;;;2.10;;
62927;SDS011;51070;52.236;-0.892;2023-06-14T00:16:18;5.10;;;2.80;;
62927;SDS011;51070;52.236;-0.892;2023-06-14T00:18:44;5.40;;;2.70;;
62927;SDS011;51070;52.236;-0.892;2023-06-14T00:21:11;5.00;;;2.40;;
62927;SDS011;51070;52.236;-0.892;2023-06-14T00:23:37;5.00;;;2.30;;
62927;SDS011;51070;52.236;-0.892;2023-06-14T00:26:03;7.90;;;2.90;;
62927;SDS011;51070;52.236;-0.892;2023-06-14T00:28:28;4.60;;;2.70;;
62927;SDS011;51070;52.236;-0.892;2023-06-14T00:30:54;4.10;;;2.30;;
62927;SDS011;51070;52.236;-0.892;2023-06-14T00:33:20;8.00;;;3.30;;
62927;SDS011;51070;52.236;-0.892;2023-06-14T00:35:45;4.70;;;2.90;;
62927;SDS011;51070;52.236;-0.892;2023-06-14T00:38:12;5.40;;;2.80;;
62927;SDS011;51070;52.236;-0.892;2023-06-14T00:40:37;4.10;;;2.40;;
62927;SDS011;51070;52.236;-0.892;2023-06-14T00:43:02;5.20;;;3.20;;
62927;SDS011;51070;52.236;-0.892;2023-06-14T00:45:28;5.80;;;3.20;;
62927;SDS011;51070;52.236;-0.892;2023-06-14T00:47:53;4.40;;;2.60;;
62927;SDS011;51070;52.236;-0.892;2023-06-14T00:50:20;4.10;;;2.70;;
62927;SDS011;51070;52.236;-0.892;2023-06-14T00:52:47;4.50;;;2.70;;
62927;SDS011;51070;52.236;-0.892;2023-06-14T00:55:12;5.30;;;2.50;;
62927;SDS011;51070;52.236;-0.892;2023-06-14T00:57:38;7.00;;;2.40;;
62927;SDS011;51070;52.236;-0.892;2023-06-14T01:00:05;5.20;;;2.40;;
62927;SDS011;51070;52.236;-0.892;2023-06-14T01:02:35;4.60;;;2.50;;
62927;SDS011;51070;52.236;-0.892;2023-06-14T01:15:18;3.60;;;2.20;;
62927;SDS011;51070;52.236;-0.892;2023-06-14T01:17:46;5.60;;;2.60;;
62927;SDS011;51070;52.236;-0.892;2023-06-14T01:20:16;4.60;;;3.00;;
62927;SDS011;51070;52.236;-0.892;2023-06-14T01:22:50;4.60;;;2.40;;
62927;SDS011;51070;52.236;-0.892;2023-06-14T01:25:17;6.20;;;2.70;;
62927;SDS011;51070;52.236;-0.892;2023-06-14T01:27:46;5.80;;;3.00;;
62927;SDS011;51070;52.236;-0.892;2023-06-14T01:30:14;4.00;;;2.30;;
62927;SDS011;51070;52.236;-0.892;2023-06-14T01:32:40;6.50;;;2.90;;
62927;SDS011;51070;52.236;-0.892;2023-06-14T01:35:06;5.90;;;2.70;;
62927;SDS011;51070;52.236;-0.892;2023-06-14T01:37:32;4.50;;;2.40;;
62927;SDS011;51070;52.236;-0.892;2023-06-14T01:39:58;7.40;;;2.90;;
62927;SDS011;51070;52.236;-0.892;2023-06-14T01:42:24;6.80;;;2.70;;
62927;SDS011;51070;52.236;-0.892;2023-06-14T01:44:51;6.40;;;2.90;;
62927;SDS011;51070;52.236;-0.892;2023-06-14T01:47:19;6.40;;;2.90;;
62927;SDS011;51070;52.236;-0.892;2023-06-14T01:49:46;6.40;;;2.80;;
62927;SDS011;51070;52.236;-0.892;2023-06-14T01:52:11;5.40;;;2.70;;
62927;SDS011;51070;52.236;-0.892;2023-06-14T01:54:37;7.70;;;3.30;;
62927;SDS011;51070;52.236;-0.892;2023-06-14T01:57:07;4.50;;;2.50;;
62927;SDS011;51070;52.236;-0.892;2023-06-14T01:59:33;4.60;;;3.10;;
62927;SDS011;51070;52.236;-0.892;2023-06-14T02:02:01;6.40;;;2.50;;
62927;SDS011;51070;52.236;-0.892;2023-06-14T02:04:28;6.20;;;3.20;;
62927;SDS011;51070;52.236;-0.892;2023-06-14T02:06:53;5.60;;;2.60;;
62927;SDS011;51070;52.236;-0.892;2023-06-14T02:09:19;6.10;;;3.10;;
62927;SDS011;51070;52.236;-0.892;2023-06-14T02:11:44;4.30;;;2.70;;
62927;SDS011;51070;52.236;-0.892;2023-06-14T02:14:10;10.00;;;3.80;;
62927;SDS011;51070;52.236;-0.892;2023-06-14T02:16:36;5.10;;;2.90;;
62927;SDS011;51070;52.236;-0.892;2023-06-14T02:19:04;6.00;;;2.60;;
62927;SDS011;51070;52.236;-0.892;2023-06-14T02:21:30;5.40;;;2.70;;
62927;SDS011;51070;52.236;-0.892;2023-06-14T02:23:55;5.70;;;2.90;;
62927;SDS011;51070;52.236;-0.892;2023-06-14T02:26:21;8.10;;;3.90;;
62927;SDS011;51070;52.236;-0.892;2023-06-14T02:28:47;6.40;;;3.60;;
62927;SDS011;51070;52.236;-0.892;2023-06-14T02:31:13;8.10;;;3.10;;
62927;SDS011;51070;52.236;-0.892;2023-06-14T02:33:39;6.40;;;2.90;;
62927;SDS011;51070;52.236;-0.892;2023-06-14T02:36:05;6.50;;;3.20;;
62927;SDS011;51070;52.236;-0.892;2023-06-14T02:38:31;6.00;;;2.90;;
62927;SDS011;51070;52.236;-0.892;2023-06-14T02:40:57;6.60;;;3.10;;
62927;SDS011;51070;52.236;-0.892;2023-06-14T02:43:24;5.70;;;2.90;;
62927;SDS011;51070;52.236;-0.892;2023-06-14T02:45:49;6.20;;;2.70;;
62927;SDS011;51070;52.236;-0.892;2023-06-14T02:48:15;7.20;;;2.90;;
62927;SDS011;51070;52.236;-0.892;2023-06-14T02:50:41;9.30;;;3.10;;
62927;SDS011;51070;52.236;-0.892;2023-06-14T02:53:07;9.20;;;2.90;;
62927;SDS011;51070;52.236;-0.892;2023-06-14T02:55:32;8.30;;;2.90;;
62927;SDS011;51070;52.236;-0.892;2023-06-14T02:57:58;6.40;;;4.10;;
62927;SDS011;51070;52.236;-0.892;2023-06-14T03:00:24;5.70;;;3.00;;
62927;SDS011;51070;52.236;-0.892;2023-06-14T03:02:49;8.80;;;3.00;;
62927;SDS011;51070;52.236;-0.892;2023-06-14T03:05:16;4.50;;;3.00;;
62927;SDS011;51070;52.236;-0.892;2023-06-14T03:07:46;6.30;;;2.90;;
62927;SDS011;51070;52.236;-0.892;2023-06-14T03:10:12;7.00;;;3.00;;
62927;SDS011;51070;52.236;-0.892;2023-06-14T03:12:38;6.30;;;2.70;;
62927;SDS011;51070;52.236;-0.892;2023-06-14T03:15:04;5.50;;;2.80;;
62927;SDS011;51070;52.236;-0.892;2023-06-14T03:17:30;5.80;;;2.90;;
62927;SDS011;51070;52.236;-0.892;2023-06-14T03:19:59;4.50;;;2.70;;
62927;SDS011;51070;52.236;-0.892;2023-06-14T03:22:25;8.30;;;3.50;;
62927;SDS011;51070;52.236;-0.892;2023-06-14T03:24:51;3.90;;;2.80;;
62927;SDS011;51070;52.236;-0.892;2023-06-14T03:27:17;6.30;;;2.90;;
62927;SDS011;51070;52.236;-0.892;2023-06-14T03:29:43;6.40;;;3.00;;
62927;SDS011;51070;52.236;-0.892;2023-06-14T03:32:09;5.00;;;3.10;;
62927;SDS011;51070;52.236;-0.892;2023-06-14T03:34:35;6.30;;;3.10;;
62927;SDS011;51070;52.236;-0.892;2023-06-14T03:37:00;8.00;;;2.90;;
62927;SDS011;51070;52.236;-0.892;2023-06-14T03:39:25;5.40;;;2.70;;
62927;SDS011;51070;52.236;-0.892;2023-06-14T03:41:51;6.70;;;3.40;;
62927;SDS011;51070;52.236;-0.892;2023-06-14T03:44:17;5.90;;;3.00;;
62927;SDS011;51070;52.236;-0.892;2023-06-14T03:46:44;6.70;;;3.50;;
62927;SDS011;51070;52.236;-0.892;2023-06-14T03:49:11;6.90;;;3.50;;
62927;SDS011;51070;52.236;-0.892;2023-06-14T03:51:36;7.30;;;3.10;;
62927;SDS011;51070;52.236;-0.892;2023-06-14T03:54:02;9.00;;;3.10;;
62927;SDS011;51070;52.236;-0.892;2023-06-14T03:56:27;6.90;;;3.50;;
62927;SDS011;51070;52.236;-0.892;2023-06-14T03:58:53;5.40;;;2.40;;
62927;SDS011;51070;52.236;-0.892;2023-06-14T04:01:18;7.40;;;3.20;;
62927;SDS011;51070;52.236;-0.892;2023-06-14T04:03:44;6.20;;;3.00;;
62927;SDS011;51070;52.236;-0.892;2023-06-14T04:06:09;6.90;;;2.80;;
62927;SDS011;51070;52.236;-0.892;2023-06-14T04:08:34;6.60;;;3.10;;
62927;SDS011;51070;52.236;-0.892;2023-06-14T04:11:00;9.00;;;3.20;;
62927;SDS011;51070;52.236;-0.892;2023-06-14T04:13:26;4.20;;;2.70;;
62927;SDS011;51070;52.236;-0.892;2023-06-14T04:15:51;5.60;;;3.00;;
62927;SDS011;51070;52.236;-0.892;2023-06-14T04:18:17;5.20;;;2.90;;
62927;SDS011;51070;52.236;-0.892;2023-06-14T04:20:44;7.70;;;3.40;;
62927;SDS011;51070;52.236;-0.892;2023-06-14T04:23:19;9.60;;;3.30;;
62927;SDS011;51070;52.236;-0.892;2023-06-14T04:25:44;6.20;;;3.30;;
62927;SDS011;51070;52.236;-0.892;2023-06-14T04:28:13;5.30;;;3.20;;
62927;SDS011;51070;52.236;-0.892;2023-06-14T04:30:40;6.40;;;3.10;;
62927;SDS011;51070;52.236;-0.892;2023-06-14T04:33:06;7.70;;;3.10;;
62927;SDS011;51070;52.236;-0.892;2023-06-14T04:35:32;7.50;;;3.30;;
62927;SDS011;51070;52.236;-0.892;2023-06-14T04:38:01;4.40;;;2.80;;
62927;SDS011;51070;52.236;-0.892;2023-06-14T04:40:29;7.60;;;3.10;;
62927;SDS011;51070;52.236;-0.892;2023-06-14T04:42:55;9.40;;;3.00;;
62927;SDS011;51070;52.236;-0.892;2023-06-14T04:45:20;6.20;;;3.30;;
62927;SDS011;51070;52.236;-0.892;2023-06-14T04:47:47;10.30;;;2.80;;
62927;SDS011;51070;52.236;-0.892;2023-06-14T04:50:12;7.40;;;3.00;;
62927;SDS011;51070;52.236;-0.892;2023-06-14T04:52:38;6.60;;;2.70;;
62927;SDS011;51070;52.236;-0.892;2023-06-14T04:55:03;5.70;;;2.90;;
62927;SDS011;51070;52.236;-0.892;2023-06-14T04:57:30;5.70;;;2.70;;
62927;SDS011;51070;52.236;-0.892;2023-06-14T04:59:56;5.20;;;2.60;;
62927;SDS011;51070;52.236;-0.892;2023-06-14T05:02:22;5.00;;;3.00;;
62927;SDS011;51070;52.236;-0.892;2023-06-14T05:04:49;5.10;;;3.00;;
62927;SDS011;51070;52.236;-0.892;2023-06-14T05:07:15;3.70;;;2.50;;
62927;SDS011;51070;52.236;-0.892;2023-06-14T05:09:40;5.80;;;2.70;;
62927;SDS011;51070;52.236;-0.892;2023-06-14T05:12:06;7.30;;;3.30;;
62927;SDS011;51070;52.236;-0.892;2023-06-14T05:14:35;4.00;;;3.00;;
62927;SDS011;51070;52.236;-0.892;2023-06-14T05:17:01;5.50;;;2.50;;
62927;SDS011;51070;52.236;-0.892;2023-06-14T05:19:27;5.60;;;2.90;;
62927;SDS011;51070;52.236;-0.892;2023-06-14T05:21:53;7.90;;;2.80;;
62927;SDS011;51070;52.236;-0.892;2023-06-14T05:24:20;8.70;;;3.00;;
62927;SDS011;51070;52.236;-0.892;2023-06-14T05:26:46;5.50;;;2.70;;
62927;SDS011;51070;52.236;-0.892;2023-06-14T05:29:11;4.90;;;2.70;;
62927;SDS011;51070;52.236;-0.892;2023-06-14T05:31:37;6.60;;;2.80;;
62927;SDS011;51070;52.236;-0.892;2023-06-14T05:34:03;8.00;;;2.70;;
62927;SDS011;51070;52.236;-0.892;2023-06-14T05:36:28;7.20;;;2.80;;
62927;SDS011;51070;52.236;-0.892;2023-06-14T05:38:54;6.30;;;2.50;;
62927;SDS011;51070;52.236;-0.892;2023-06-14T05:41:24;5.90;;;3.00;;
62927;SDS011;51070;52.236;-0.892;2023-06-14T05:43:53;5.80;;;2.60;;
62927;SDS011;51070;52.236;-0.892;2023-06-14T05:46:19;4.60;;;2.70;;
62927;SDS011;51070;52.236;-0.892;2023-06-14T05:48:50;6.00;;;2.70;;
62927;SDS011;51070;52.236;-0.892;2023-06-14T05:51:16;6.60;;;2.80;;
62927;SDS011;51070;52.236;-0.892;2023-06-14T05:53:50;7.40;;;2.30;;
62927;SDS011;51070;52.236;-0.892;2023-06-14T05:56:15;4.50;;;2.30;;
62927;SDS011;51070;52.236;-0.892;2023-06-14T05:58:45;5.40;;;2.70;;
62927;SDS011;51070;52.236;-0.892;2023-06-14T06:01:11;9.80;;;3.30;;
62927;SDS011;51070;52.236;-0.892;2023-06-14T06:03:36;10.60;;;3.00;;
62927;SDS011;51070;52.236;-0.892;2023-06-14T06:06:02;6.40;;;2.60;;
62927;SDS011;51070;52.236;-0.892;2023-06-14T06:08:28;6.90;;;2.60;;
62927;SDS011;51070;52.236;-0.892;2023-06-14T06:10:54;6.80;;;2.90;;
62927;SDS011;51070;52.236;-0.892;2023-06-14T06:13:19;5.10;;;2.40;;
62927;SDS011;51070;52.236;-0.892;2023-06-14T06:15:44;7.60;;;2.80;;
62927;SDS011;51070;52.236;-0.892;2023-06-14T06:18:10;4.80;;;2.70;;
62927;SDS011;51070;52.236;-0.892;2023-06-14T06:20:36;8.20;;;3.20;;
62927;SDS011;51070;52.236;-0.892;2023-06-14T06:23:01;9.40;;;2.90;;
62927;SDS011;51070;52.236;-0.892;2023-06-14T06:25:27;7.10;;;3.00;;
62927;SDS011;51070;52.236;-0.892;2023-06-14T06:27:53;6.60;;;3.00;;
62927;SDS011;51070;52.236;-0.892;2023-06-14T06:30:19;6.20;;;2.40;;
62927;SDS011;51070;52.236;-0.892;2023-06-14T06:32:45;7.40;;;2.70;;
62927;SDS011;51070;52.236;-0.892;2023-06-14T06:35:11;6.70;;;2.70;;
62927;SDS011;51070;52.236;-0.892;2023-06-14T06:37:38;7.30;;;2.90;;
62927;SDS011;51070;52.236;-0.892;2023-06-14T06:40:04;7.90;;;3.30;;
62927;SDS011;51070;52.236;-0.892;2023-06-14T06:42:31;5.50;;;2.80;;
62927;SDS011;51070;52.236;-0.892;2023-06-14T06:44:57;7.60;;;2.90;;
62927;SDS011;51070;52.236;-0.892;2023-06-14T06:47:23;6.10;;;3.40;;
62927;SDS011;51070;52.236;-0.892;2023-06-14T06:49:48;9.30;;;2.80;;
62927;SDS011;51070;52.236;-0.892;2023-06-14T06:52:14;8.20;;;3.00;;
62927;SDS011;51070;52.236;-0.892;2023-06-14T06:54:39;6.90;;;2.50;;
62927;SDS011;51070;52.236;-0.892;2023-06-14T06:57:05;7.70;;;3.20;;
62927;SDS011;51070;52.236;-0.892;2023-06-14T06:59:31;7.10;;;3.20;;
62927;SDS011;51070;52.236;-0.892;2023-06-14T07:01:57;7.00;;;3.20;;
62927;SDS011;51070;52.236;-0.892;2023-06-14T07:04:22;7.40;;;3.00;;
62927;SDS011;51070;52.236;-0.892;2023-06-14T07:06:48;8.00;;;3.20;;
62927;SDS011;51070;52.236;-0.892;2023-06-14T07:09:13;8.30;;;3.20;;
62927;SDS011;51070;52.236;-0.892;2023-06-14T07:11:41;6.00;;;2.50;;
62927;SDS011;51070;52.236;-0.892;2023-06-14T07:14:07;5.40;;;3.00;;
62927;SDS011;51070;52.236;-0.892;2023-06-14T07:16:33;7.60;;;2.80;;
62927;SDS011;51070;52.236;-0.892;2023-06-14T07:18:58;8.90;;;2.90;;
62927;SDS011;51070;52.236;-0.892;2023-06-14T07:21:25;9.50;;;3.40;;
62927;SDS011;51070;52.236;-0.892;2023-06-14T07:23:53;5.70;;;2.50;;
62927;SDS011;51070;52.236;-0.892;2023-06-14T07:26:19;6.60;;;2.60;;
62927;SDS011;51070;52.236;-0.892;2023-06-14T07:28:45;5.90;;;2.60;;
62927;SDS011;51070;52.236;-0.892;2023-06-14T07:31:11;8.20;;;3.00;;
62927;SDS011;51070;52.236;-0.892;2023-06-14T07:33:37;5.50;;;2.50;;
62927;SDS011;51070;52.236;-0.892;2023-06-14T07:40:54;7.30;;;3.10;;
62927;SDS011;51070;52.236;-0.892;2023-06-14T07:43:19;8.80;;;2.90;;
62927;SDS011;51070;52.236;-0.892;2023-06-14T07:45:45;9.40;;;3.40;;
62927;SDS011;51070;52.236;-0.892;2023-06-14T07:48:11;6.60;;;2.30;;
62927;SDS011;51070;52.236;-0.892;2023-06-14T07:50:36;6.40;;;3.00;;
62927;SDS011;51070;52.236;-0.892;2023-06-14T07:53:02;5.70;;;2.80;;
62927;SDS011;51070;52.236;-0.892;2023-06-14T07:55:27;5.80;;;2.90;;
62927;SDS011;51070;52.236;-0.892;2023-06-14T07:57:53;5.80;;;3.00;;
62927;SDS011;51070;52.236;-0.892;2023-06-14T08:00:19;6.30;;;3.40;;
62927;SDS011;51070;52.236;-0.892;2023-06-14T08:02:45;7.90;;;2.80;;
62927;SDS011;51070;52.236;-0.892;2023-06-14T08:05:11;5.50;;;2.70;;
62927;SDS011;51070;52.236;-0.892;2023-06-14T08:07:38;9.10;;;2.90;;
62927;SDS011;51070;52.236;-0.892;2023-06-14T08:10:04;7.00;;;2.80;;
62927;SDS011;51070;52.236;-0.892;2023-06-14T08:12:31;5.20;;;2.70;;
62927;SDS011;51070;52.236;-0.892;2023-06-14T08:14:56;7.90;;;3.20;;
62927;SDS011;51070;52.236;-0.892;2023-06-14T08:17:22;7.40;;;2.90;;
62927;SDS011;51070;52.236;-0.892;2023-06-14T08:19:47;9.60;;;3.10;;
62927;SDS011;51070;52.236;-0.892;2023-06-14T08:22:12;6.30;;;3.00;;
62927;SDS011;51070;52.236;-0.892;2023-06-14T08:24:38;9.00;;;3.00;;
62927;SDS011;51070;52.236;-0.892;2023-06-14T08:27:05;6.30;;;2.80;;
62927;SDS011;51070;52.236;-0.892;2023-06-14T08:29:31;5.50;;;3.00;;
62927;SDS011;51070;52.236;-0.892;2023-06-14T08:31:56;9.80;;;3.10;;
62927;SDS011;51070;52.236;-0.892;2023-06-14T08:34:22;6.30;;;2.90;;
62927;SDS011;51070;52.236;-0.892;2023-06-14T08:36:49;7.90;;;2.70;;
62927;SDS011;51070;52.236;-0.892;2023-06-14T08:39:15;5.50;;;2.60;;
62927;SDS011;51070;52.236;-0.892;2023-06-14T08:41:41;4.50;;;2.50;;
62927;SDS011;51070;52.236;-0.892;2023-06-14T08:44:11;5.70;;;2.40;;
62927;SDS011;51070;52.236;-0.892;2023-06-14T08:46:37;6.70;;;2.10;;
62927;SDS011;51070;52.236;-0.892;2023-06-14T08:49:03;5.50;;;3.00;;
62927;SDS011;51070;52.236;-0.892;2023-06-14T08:51:30;6.90;;;2.90;;
62927;SDS011;51070;52.236;-0.892;2023-06-14T08:53:59;5.60;;;2.80;;
62927;SDS011;51070;52.236;-0.892;2023-06-14T08:56:27;6.80;;;3.10;;
62927;SDS011;51070;52.236;-0.892;2023-06-14T08:58:54;4.90;;;2.90;;
62927;SDS011;51070;52.236;-0.892;2023-06-14T09:01:21;4.90;;;2.80;;
62927;SDS011;51070;52.236;-0.892;2023-06-14T09:03:48;6.30;;;2.80;;
62927;SDS011;51070;52.236;-0.892;2023-06-14T09:06:15;4.20;;;2.40;;
62927;SDS011;51070;52.236;-0.892;2023-06-14T09:08:45;7.70;;;3.30;;
62927;SDS011;51070;52.236;-0.892;2023-06-14T09:11:12;4.40;;;2.70;;
62927;SDS011;51070;52.236;-0.892;2023-06-14T09:13:39;6.10;;;2.50;;
62927;SDS011;51070;52.236;-0.892;2023-06-14T09:16:06;5.60;;;2.60;;
62927;SDS011;51070;52.236;-0.892;2023-06-14T09:21:01;7.70;;;2.90;;
62927;SDS011;51070;52.236;-0.892;2023-06-14T09:23:26;4.50;;;2.60;;
62927;SDS011;51070;52.236;-0.892;2023-06-14T09:25:52;7.80;;;3.30;;
62927;SDS011;51070;52.236;-0.892;2023-06-14T09:28:17;7.80;;;3.00;;
62927;SDS011;51070;52.236;-0.892;2023-06-14T09:30:42;6.80;;;3.20;;
62927;SDS011;51070;52.236;-0.892;2023-06-14T09:33:08;5.30;;;2.60;;
62927;SDS011;51070;52.236;-0.892;2023-06-14T09:35:33;7.20;;;2.90;;
62927;SDS011;51070;52.236;-0.892;2023-06-14T09:37:59;5.70;;;2.70;;
62927;SDS011;51070;52.236;-0.892;2023-06-14T09:40:24;5.80;;;2.90;;
62927;SDS011;51070;52.236;-0.892;2023-06-14T09:42:50;7.30;;;2.90;;
62927;SDS011;51070;52.236;-0.892;2023-06-14T09:45:17;6.00;;;3.00;;
62927;SDS011;51070;52.236;-0.892;2023-06-14T09:47:48;10.50;;;2.80;;
62927;SDS011;51070;52.236;-0.892;2023-06-14T09:50:14;4.40;;;3.10;;
62927;SDS011;51070;52.236;-0.892;2023-06-14T09:52:39;7.70;;;3.20;;
62927;SDS011;51070;52.236;-0.892;2023-06-14T09:55:11;5.80;;;2.80;;
62927;SDS011;51070;52.236;-0.892;2023-06-14T09:57:38;6.60;;;3.20;;
62927;SDS011;51070;52.236;-0.892;2023-06-14T10:00:08;7.50;;;3.40;;
62927;SDS011;51070;52.236;-0.892;2023-06-14T10:02:38;8.10;;;3.20;;
62927;SDS011;51070;52.236;-0.892;2023-06-14T10:05:08;6.10;;;2.80;;
62927;SDS011;51070;52.236;-0.892;2023-06-14T10:07:40;6.10;;;2.90;;
62927;SDS011;51070;52.236;-0.892;2023-06-14T10:10:20;5.50;;;3.30;;
62927;SDS011;51070;52.236;-0.892;2023-06-14T10:12:46;6.80;;;2.80;;
62927;SDS011;51070;52.236;-0.892;2023-06-14T10:15:17;5.70;;;2.70;;
62927;SDS011;51070;52.236;-0.892;2023-06-14T10:17:52;7.00;;;3.10;;
62927;SDS011;51070;52.236;-0.892;2023-06-14T10:20:26;5.00;;;3.00;;
62927;SDS011;51070;52.236;-0.892;2023-06-14T10:22:58;10.40;;;2.80;;
62927;SDS011;51070;52.236;-0.892;2023-06-14T10:25:29;7.30;;;3.70;;
62927;SDS011;51070;52.236;-0.892;2023-06-14T10:28:02;5.70;;;3.50;;
62927;SDS011;51070;52.236;-0.892;2023-06-14T10:30:28;7.00;;;3.10;;
62927;SDS011;51070;52.236;-0.892;2023-06-14T10:33:03;6.20;;;3.10;;
62927;SDS011;51070;52.236;-0.892;2023-06-14T10:35:30;10.10;;;3.00;;
62927;SDS011;51070;52.236;-0.892;2023-06-14T10:38:03;8.40;;;3.10;;
62927;SDS011;51070;52.236;-0.892;2023-06-14T10:40:31;8.60;;;3.50;;
62927;SDS011;51070;52.236;-0.892;2023-06-14T10:42:59;7.10;;;3.00;;
62927;SDS011;51070;52.236;-0.892;2023-06-14T10:45:24;9.90;;;3.90;;
62927;SDS011;51070;52.236;-0.892;2023-06-14T10:47:49;6.40;;;3.40;;
62927;SDS011;51070;52.236;-0.892;2023-06-14T10:50:17;9.40;;;3.50;;
62927;SDS011;51070;52.236;-0.892;2023-06-14T10:52:54;9.00;;;3.40;;
62927;SDS011;51070;52.236;-0.892;2023-06-14T10:55:20;6.40;;;3.20;;
62927;SDS011;51070;52.236;-0.892;2023-06-14T10:57:51;9.30;;;3.10;;
62927;SDS011;51070;52.236;-0.892;2023-06-14T11:00:21;7.40;;;3.10;;
62927;SDS011;51070;52.236;-0.892;2023-06-14T11:05:54;8.30;;;3.60;;
62927;SDS011;51070;52.236;-0.892;2023-06-14T11:11:18;7.00;;;3.40;;
62927;SDS011;51070;52.236;-0.892;2023-06-14T11:13:50;6.60;;;3.00;;
62927;SDS011;51070;52.236;-0.892;2023-06-14T11:16:17;6.30;;;3.20;;
62927;SDS011;51070;52.236;-0.892;2023-06-14T11:18:46;5.50;;;3.40;;
62927;SDS011;51070;52.236;-0.892;2023-06-14T11:21:16;9.20;;;3.70;;
62927;SDS011;51070;52.236;-0.892;2023-06-14T11:23:48;6.80;;;3.80;;
62927;SDS011;51070;52.236;-0.892;2023-06-14T11:28:59;8.10;;;3.40;;
62927;SDS011;51070;52.236;-0.892;2023-06-14T11:31:26;9.90;;;3.40;;
62927;SDS011;51070;52.236;-0.892;2023-06-14T11:33:53;6.70;;;3.50;;
62927;SDS011;51070;52.236;-0.892;2023-06-14T11:36:20;6.20;;;3.20;;
62927;SDS011;51070;52.236;-0.892;2023-06-14T11:38:45;7.90;;;3.40;;
62927;SDS011;51070;52.236;-0.892;2023-06-14T11:41:11;9.40;;;4.00;;
62927;SDS011;51070;52.236;-0.892;2023-06-14T11:43:36;8.10;;;4.20;;
62927;SDS011;51070;52.236;-0.892;2023-06-14T11:46:02;8.00;;;3.30;;
62927;SDS011;51070;52.236;-0.892;2023-06-14T11:48:41;8.20;;;3.30;;
62927;SDS011;51070;52.236;-0.892;2023-06-14T11:51:07;8.90;;;3.50;;
62927;SDS011;51070;52.236;-0.892;2023-06-14T11:53:33;8.00;;;3.70;;
62927;SDS011;51070;52.236;-0.892;2023-06-14T11:55:59;9.90;;;3.60;;
62927;SDS011;51070;52.236;-0.892;2023-06-14T11:58:25;8.90;;;4.00;;
62927;SDS011;51070;52.236;-0.892;2023-06-14T12:00:52;9.70;;;3.70;;
62927;SDS011;51070;52.236;-0.892;2023-06-14T12:03:22;8.80;;;3.50;;
62927;SDS011;51070;52.236;-0.892;2023-06-14T12:05:48;7.10;;;3.70;;
62927;SDS011;51070;52.236;-0.892;2023-06-14T12:08:14;7.10;;;3.70;;
62927;SDS011;51070;52.236;-0.892;2023-06-14T12:10:42;6.60;;;3.90;;
62927;SDS011;51070;52.236;-0.892;2023-06-14T12:13:08;9.20;;;4.00;;
62927;SDS011;51070;52.236;-0.892;2023-06-14T12:15:34;8.20;;;3.50;;
62927;SDS011;51070;52.236;-0.892;2023-06-14T12:18:00;10.60;;;3.70;;
62927;SDS011;51070;52.236;-0.892;2023-06-14T12:20:29;7.10;;;3.40;;
62927;SDS011;51070;52.236;-0.892;2023-06-14T12:22:56;12.20;;;3.70;;
62927;SDS011;51070;52.236;-0.892;2023-06-14T12:25:26;7.30;;;3.90;;
62927;SDS011;51070;52.236;-0.892;2023-06-14T12:27:59;5.80;;;3.70;;
62927;SDS011;51070;52.236;-0.892;2023-06-14T12:30:29;6.20;;;3.60;;
62927;SDS011;51070;52.236;-0.892;2023-06-14T12:32:55;6.40;;;3.90;;
62927;SDS011;51070;52.236;-0.892;2023-06-14T12:35:20;9.10;;;4.40;;
62927;SDS011;51070;52.236;-0.892;2023-06-14T12:37:46;7.20;;;3.80;;
62927;SDS011;51070;52.236;-0.892;2023-06-14T12:40:12;5.90;;;3.70;;
62927;SDS011;51070;52.236;-0.892;2023-06-14T12:42:38;7.30;;;3.40;;
62927;SDS011;51070;52.236;-0.892;2023-06-14T12:45:05;5.10;;;3.50;;
62927;SDS011;51070;52.236;-0.892;2023-06-14T12:47:31;7.80;;;3.30;;
62927;SDS011;51070;52.236;-0.892;2023-06-14T12:49:56;8.10;;;4.00;;
62927;SDS011;51070;52.236;-0.892;2023-06-14T12:52:21;9.20;;;3.80;;
62927;SDS011;51070;52.236;-0.892;2023-06-14T12:54:47;4.60;;;3.30;;
62927;SDS011;51070;52.236;-0.892;2023-06-14T12:57:12;6.40;;;3.40;;
62927;SDS011;51070;52.236;-0.892;2023-06-14T12:59:38;12.00;;;4.40;;
62927;SDS011;51070;52.236;-0.892;2023-06-14T13:02:10;7.90;;;3.70;;
62927;SDS011;51070;52.236;-0.892;2023-06-14T13:04:40;9.80;;;4.10;;
62927;SDS011;51070;52.236;-0.892;2023-06-14T13:07:05;5.50;;;4.10;;
62927;SDS011;51070;52.236;-0.892;2023-06-14T13:09:31;11.40;;;4.40;;
62927;SDS011;51070;52.236;-0.892;2023-06-14T13:11:56;6.80;;;3.90;;
62927;SDS011;51070;52.236;-0.892;2023-06-14T13:14:21;7.50;;;3.80;;
62927;SDS011;51070;52.236;-0.892;2023-06-14T13:16:47;8.20;;;3.80;;
62927;SDS011;51070;52.236;-0.892;2023-06-14T13:19:12;8.90;;;3.80;;
62927;SDS011;51070;52.236;-0.892;2023-06-14T13:21:37;4.20;;;3.60;;
62927;SDS011;51070;52.236;-0.892;2023-06-14T13:24:03;4.70;;;4.00;;
62927;SDS011;51070;52.236;-0.892;2023-06-14T13:26:29;6.00;;;3.80;;
62927;SDS011;51070;52.236;-0.892;2023-06-14T13:28:55;5.50;;;3.80;;
62927;SDS011;51070;52.236;-0.892;2023-06-14T13:31:20;4.70;;;3.60;;
62927;SDS011;51070;52.236;-0.892;2023-06-14T13:33:45;7.00;;;3.70;;
62927;SDS011;51070;52.236;-0.892;2023-06-14T13:36:11;6.60;;;4.40;;
62927;SDS011;51070;52.236;-0.892;2023-06-14T13:38:36;6.00;;;4.00;;
62927;SDS011;51070;52.236;-0.892;2023-06-14T13:41:01;5.10;;;3.70;;
62927;SDS011;51070;52.236;-0.892;2023-06-14T13:43:27;7.00;;;4.30;;
62927;SDS011;51070;52.236;-0.892;2023-06-14T13:45:52;6.40;;;4.20;;
62927;SDS011;51070;52.236;-0.892;2023-06-14T13:48:17;6.90;;;4.50;;
62927;SDS011;51070;52.236;-0.892;2023-06-14T13:50:43;8.30;;;4.40;;
62927;SDS011;51070;52.236;-0.892;2023-06-14T13:53:09;6.60;;;4.00;;
62927;SDS011;51070;52.236;-0.892;2023-06-14T13:55:35;7.10;;;4.00;;
62927;SDS011;51070;52.236;-0.892;2023-06-14T13:58:00;6.00;;;4.40;;
62927;SDS011;51070;52.236;-0.892;2023-06-14T14:00:26;7.90;;;4.50;;
62927;SDS011;51070;52.236;-0.892;2023-06-14T14:02:51;4.20;;;3.70;;
62927;SDS011;51070;52.236;-0.892;2023-06-14T14:05:16;5.00;;;4.20;;
62927;SDS011;51070;52.236;-0.892;2023-06-14T14:07:42;5.40;;;3.60;;
62927;SDS011;51070;52.236;-0.892;2023-06-14T14:10:07;6.10;;;3.90;;
62927;SDS011;51070;52.236;-0.892;2023-06-14T14:12:33;5.90;;;3.90;;
62927;SDS011;51070;52.236;-0.892;2023-06-14T14:14:59;6.90;;;4.30;;
62927;SDS011;51070;52.236;-0.892;2023-06-14T14:17:24;4.00;;;3.60;;
62927;SDS011;51070;52.236;-0.892;2023-06-14T14:19:50;10.20;;;4.20;;
62927;SDS011;51070;52.236;-0.892;2023-06-14T14:22:15;7.20;;;4.30;;
62927;SDS011;51070;52.236;-0.892;2023-06-14T14:24:41;6.40;;;3.50;;
62927;SDS011;51070;52.236;-0.892;2023-06-14T14:27:06;4.20;;;3.80;;
62927;SDS011;51070;52.236;-0.892;2023-06-14T14:29:33;5.70;;;3.80;;
62927;SDS011;51070;52.236;-0.892;2023-06-14T14:31:58;4.40;;;3.50;;
62927;SDS011;51070;52.236;-0.892;2023-06-14T14:34:26;5.00;;;3.90;;
62927;SDS011;51070;52.236;-0.892;2023-06-14T14:36:52;4.50;;;4.00;;
62927;SDS011;51070;52.236;-0.892;2023-06-14T14:39:17;4.90;;;3.90;;
62927;SDS011;51070;52.236;-0.892;2023-06-14T14:41:43;6.30;;;4.90;;
62927;SDS011;51070;52.236;-0.892;2023-06-14T14:44:08;4.70;;;4.10;;
62927;SDS011;51070;52.236;-0.892;2023-06-14T14:46:33;6.00;;;4.40;;
62927;SDS011;51070;52.236;-0.892;2023-06-14T14:48:59;4.90;;;3.50;;
62927;SDS011;51070;52.236;-0.892;2023-06-14T14:51:25;5.40;;;3.50;;
62927;SDS011;51070;52.236;-0.892;2023-06-14T14:53:50;6.20;;;3.50;;
62927;SDS011;51070;52.236;-0.892;2023-06-14T14:56:16;8.00;;;4.00;;